sensor_id;sensor_type;location;lat;lon;timestamp;P1;durP1;ratioP1;P2;durP2;ratioP2
34481;SDS011;20720;48.886;9.388;2023-02-21T00:00:07;8.13;;;3.92;;
34481;SDS011;20720;48.886;9.388;2023-02-21T00:02:51;10.25;;;4.25;;
34481;SDS011;20720;48.886;9.388;2023-02-21T00:05:35;10.68;;;5.03;;
34481;SDS011;20720;48.886;9.388;2023-02-21T00:08:19;8.88;;;4.03;;
34481;SDS011;20720;48.886;9.388;2023-02-21T00:11:03;14.80;;;4.38;;
34481;SDS011;20720;48.886;9.388;2023-02-21T00:13:46;11.38;;;5.10;;
34481;SDS011;20720;48.886;9.388;2023-02-21T00:16:30;9.88;;;4.82;;
34481;SDS011;20720;48.886;9.388;2023-02-21T00:19:14;9.27;;;4.65;;
34481;SDS011;20720;48.886;9.388;2023-02-21T00:21:58;8.38;;;4.32;;
34481;SDS011;20720;48.886;9.388;2023-02-21T00:24:42;9.02;;;4.05;;
34481;SDS011;20720;48.886;9.388;2023-02-21T00:27:26;7.35;;;3.50;;
34481;SDS011;20720;48.886;9.388;2023-02-21T00:30:10;9.30;;;4.00;;
34481;SDS011;20720;48.886;9.388;2023-02-21T00:32:55;6.57;;;3.50;;
34481;SDS011;20720;48.886;9.388;2023-02-21T00:35:39;7.88;;;3.85;;
34481;SDS011;20720;48.886;9.388;2023-02-21T00:38:23;10.50;;;4.55;;
34481;SDS011;20720;48.886;9.388;2023-02-21T00:41:07;9.73;;;4.43;;
34481;SDS011;20720;48.886;9.388;2023-02-21T00:43:52;6.75;;;3.35;;
34481;SDS011;20720;48.886;9.388;2023-02-21T00:46:35;7.88;;;3.58;;
34481;SDS011;20720;48.886;9.388;2023-02-21T00:49:19;9.23;;;3.97;;
34481;SDS011;20720;48.886;9.388;2023-02-21T00:52:03;11.23;;;5.55;;
34481;SDS011;20720;48.886;9.388;2023-02-21T00:54:47;5.82;;;2.88;;
34481;SDS011;20720;48.886;9.388;2023-02-21T00:57:31;9.00;;;3.58;;
34481;SDS011;20720;48.886;9.388;2023-02-21T01:00:17;6.70;;;3.53;;
34481;SDS011;20720;48.886;9.388;2023-02-21T01:03:03;9.85;;;3.33;;
34481;SDS011;20720;48.886;9.388;2023-02-21T01:05:47;12.65;;;3.70;;
34481;SDS011;20720;48.886;9.388;2023-02-21T01:08:31;7.45;;;3.67;;
34481;SDS011;20720;48.886;9.388;2023-02-21T01:11:16;8.13;;;3.88;;
34481;SDS011;20720;48.886;9.388;2023-02-21T01:14:01;10.00;;;4.45;;
34481;SDS011;20720;48.886;9.388;2023-02-21T01:16:45;9.02;;;3.78;;
34481;SDS011;20720;48.886;9.388;2023-02-21T01:19:29;8.73;;;4.03;;
34481;SDS011;20720;48.886;9.388;2023-02-21T01:22:13;11.35;;;3.20;;
34481;SDS011;20720;48.886;9.388;2023-02-21T01:24:57;6.88;;;3.75;;
34481;SDS011;20720;48.886;9.388;2023-02-21T01:27:41;6.32;;;3.40;;
34481;SDS011;20720;48.886;9.388;2023-02-21T01:30:25;8.93;;;4.30;;
34481;SDS011;20720;48.886;9.388;2023-02-21T01:33:09;7.78;;;3.90;;
34481;SDS011;20720;48.886;9.388;2023-02-21T01:35:54;8.82;;;4.20;;
34481;SDS011;20720;48.886;9.388;2023-02-21T01:38:37;7.75;;;3.58;;
34481;SDS011;20720;48.886;9.388;2023-02-21T01:41:21;9.32;;;3.58;;
34481;SDS011;20720;48.886;9.388;2023-02-21T01:47:21;6.18;;;3.08;;
34481;SDS011;20720;48.886;9.388;2023-02-21T01:50:28;5.13;;;2.88;;
34481;SDS011;20720;48.886;9.388;2023-02-21T01:53:14;6.75;;;3.35;;
34481;SDS011;20720;48.886;9.388;2023-02-21T01:56:01;4.53;;;2.30;;
34481;SDS011;20720;48.886;9.388;2023-02-21T01:58:47;6.20;;;3.42;;
34481;SDS011;20720;48.886;9.388;2023-02-21T02:01:37;7.00;;;2.85;;
34481;SDS011;20720;48.886;9.388;2023-02-21T02:04:26;7.20;;;3.70;;
34481;SDS011;20720;48.886;9.388;2023-02-21T02:07:10;6.85;;;3.40;;
34481;SDS011;20720;48.886;9.388;2023-02-21T02:09:54;8.95;;;3.50;;
34481;SDS011;20720;48.886;9.388;2023-02-21T02:12:52;7.85;;;3.58;;
34481;SDS011;20720;48.886;9.388;2023-02-21T02:15:33;7.07;;;3.50;;
34481;SDS011;20720;48.886;9.388;2023-02-21T02:39:58;6.90;;;3.03;;
34481;SDS011;20720;48.886;9.388;2023-02-21T02:45:17;7.38;;;3.92;;
34481;SDS011;20720;48.886;9.388;2023-02-21T02:47:52;6.15;;;3.05;;
34481;SDS011;20720;48.886;9.388;2023-02-21T02:50:21;6.78;;;3.58;;
34481;SDS011;20720;48.886;9.388;2023-02-21T02:52:54;7.40;;;3.88;;
34481;SDS011;20720;48.886;9.388;2023-02-21T02:57:54;8.88;;;3.72;;
34481;SDS011;20720;48.886;9.388;2023-02-21T03:00:20;4.75;;;2.80;;
34481;SDS011;20720;48.886;9.388;2023-02-21T03:05:21;6.38;;;3.40;;
34481;SDS011;20720;48.886;9.388;2023-02-21T03:07:57;8.88;;;3.10;;
34481;SDS011;20720;48.886;9.388;2023-02-21T03:15:47;8.07;;;3.80;;
34481;SDS011;20720;48.886;9.388;2023-02-21T03:19:00;6.82;;;3.10;;
34481;SDS011;20720;48.886;9.388;2023-02-21T03:21:24;7.40;;;3.38;;
34481;SDS011;20720;48.886;9.388;2023-02-21T03:23:53;6.15;;;2.78;;
34481;SDS011;20720;48.886;9.388;2023-02-21T03:26:22;9.60;;;3.28;;
34481;SDS011;20720;48.886;9.388;2023-02-21T03:28:48;6.28;;;3.63;;
34481;SDS011;20720;48.886;9.388;2023-02-21T03:31:15;5.82;;;3.22;;
34481;SDS011;20720;48.886;9.388;2023-02-21T03:33:44;6.55;;;3.42;;
34481;SDS011;20720;48.886;9.388;2023-02-21T03:36:09;6.22;;;3.08;;
34481;SDS011;20720;48.886;9.388;2023-02-21T03:38:35;8.48;;;3.28;;
34481;SDS011;20720;48.886;9.388;2023-02-21T03:41:00;6.18;;;3.35;;
34481;SDS011;20720;48.886;9.388;2023-02-21T03:43:26;8.95;;;3.25;;
34481;SDS011;20720;48.886;9.388;2023-02-21T03:45:51;6.72;;;3.42;;
34481;SDS011;20720;48.886;9.388;2023-02-21T03:48:17;7.65;;;4.00;;
34481;SDS011;20720;48.886;9.388;2023-02-21T03:50:42;6.32;;;3.50;;
34481;SDS011;20720;48.886;9.388;2023-02-21T03:53:08;5.40;;;3.17;;
34481;SDS011;20720;48.886;9.388;2023-02-21T03:55:33;6.93;;;3.38;;
34481;SDS011;20720;48.886;9.388;2023-02-21T03:57:59;6.65;;;3.33;;
34481;SDS011;20720;48.886;9.388;2023-02-21T04:00:24;6.72;;;3.80;;
34481;SDS011;20720;48.886;9.388;2023-02-21T04:02:49;8.45;;;4.28;;
34481;SDS011;20720;48.886;9.388;2023-02-21T04:05:15;9.18;;;3.92;;
34481;SDS011;20720;48.886;9.388;2023-02-21T04:07:40;6.85;;;4.18;;
34481;SDS011;20720;48.886;9.388;2023-02-21T04:10:05;10.02;;;4.50;;
34481;SDS011;20720;48.886;9.388;2023-02-21T04:12:31;6.78;;;3.25;;
34481;SDS011;20720;48.886;9.388;2023-02-21T04:14:56;7.00;;;4.07;;
34481;SDS011;20720;48.886;9.388;2023-02-21T04:17:22;5.03;;;2.92;;
34481;SDS011;20720;48.886;9.388;2023-02-21T04:19:48;6.97;;;3.47;;
34481;SDS011;20720;48.886;9.388;2023-02-21T04:22:13;8.52;;;4.20;;
34481;SDS011;20720;48.886;9.388;2023-02-21T04:24:38;10.05;;;3.83;;
34481;SDS011;20720;48.886;9.388;2023-02-21T04:27:04;9.57;;;4.40;;
34481;SDS011;20720;48.886;9.388;2023-02-21T04:29:29;6.65;;;3.97;;
34481;SDS011;20720;48.886;9.388;2023-02-21T04:31:54;8.27;;;3.95;;
34481;SDS011;20720;48.886;9.388;2023-02-21T04:34:20;7.43;;;3.80;;
34481;SDS011;20720;48.886;9.388;2023-02-21T04:36:45;8.07;;;3.58;;
34481;SDS011;20720;48.886;9.388;2023-02-21T04:39:11;6.65;;;3.42;;
34481;SDS011;20720;48.886;9.388;2023-02-21T04:41:36;10.63;;;4.70;;
34481;SDS011;20720;48.886;9.388;2023-02-21T04:44:02;8.02;;;4.15;;
34481;SDS011;20720;48.886;9.388;2023-02-21T04:46:27;6.78;;;4.13;;
34481;SDS011;20720;48.886;9.388;2023-02-21T04:48:52;6.95;;;4.07;;
34481;SDS011;20720;48.886;9.388;2023-02-21T04:51:19;8.88;;;4.60;;
34481;SDS011;20720;48.886;9.388;2023-02-21T04:53:46;11.43;;;5.90;;
34481;SDS011;20720;48.886;9.388;2023-02-21T04:56:13;8.88;;;3.95;;
34481;SDS011;20720;48.886;9.388;2023-02-21T04:58:39;6.97;;;4.07;;
34481;SDS011;20720;48.886;9.388;2023-02-21T05:01:06;7.82;;;3.88;;
34481;SDS011;20720;48.886;9.388;2023-02-21T05:03:31;6.13;;;3.53;;
34481;SDS011;20720;48.886;9.388;2023-02-21T05:05:56;7.90;;;3.85;;
34481;SDS011;20720;48.886;9.388;2023-02-21T05:08:22;6.75;;;3.72;;
34481;SDS011;20720;48.886;9.388;2023-02-21T05:10:48;6.95;;;3.78;;
34481;SDS011;20720;48.886;9.388;2023-02-21T05:13:14;9.15;;;4.10;;
34481;SDS011;20720;48.886;9.388;2023-02-21T05:15:39;8.55;;;4.32;;
34481;SDS011;20720;48.886;9.388;2023-02-21T05:18:04;7.00;;;3.65;;
34481;SDS011;20720;48.886;9.388;2023-02-21T05:20:29;9.55;;;4.22;;
34481;SDS011;20720;48.886;9.388;2023-02-21T05:22:55;7.53;;;3.78;;
34481;SDS011;20720;48.886;9.388;2023-02-21T05:25:21;7.05;;;3.88;;
34481;SDS011;20720;48.886;9.388;2023-02-21T05:27:48;10.77;;;4.53;;
34481;SDS011;20720;48.886;9.388;2023-02-21T05:30:15;7.15;;;3.83;;
34481;SDS011;20720;48.886;9.388;2023-02-21T05:32:42;7.40;;;3.65;;
34481;SDS011;20720;48.886;9.388;2023-02-21T05:35:08;8.40;;;3.95;;
34481;SDS011;20720;48.886;9.388;2023-02-21T05:37:34;10.10;;;3.95;;
34481;SDS011;20720;48.886;9.388;2023-02-21T05:40:00;6.65;;;4.18;;
34481;SDS011;20720;48.886;9.388;2023-02-21T05:42:25;7.05;;;4.05;;
34481;SDS011;20720;48.886;9.388;2023-02-21T05:44:50;14.43;;;6.70;;
34481;SDS011;20720;48.886;9.388;2023-02-21T05:47:15;11.48;;;5.80;;
34481;SDS011;20720;48.886;9.388;2023-02-21T05:49:41;13.52;;;7.78;;
34481;SDS011;20720;48.886;9.388;2023-02-21T05:52:09;15.40;;;9.02;;
34481;SDS011;20720;48.886;9.388;2023-02-21T05:54:36;12.60;;;7.47;;
34481;SDS011;20720;48.886;9.388;2023-02-21T05:57:01;12.07;;;6.05;;
34481;SDS011;20720;48.886;9.388;2023-02-21T05:59:27;8.63;;;4.40;;
34481;SDS011;20720;48.886;9.388;2023-02-21T06:01:52;8.52;;;4.45;;
34481;SDS011;20720;48.886;9.388;2023-02-21T06:04:17;9.15;;;4.75;;
34481;SDS011;20720;48.886;9.388;2023-02-21T06:06:43;22.45;;;8.85;;
34481;SDS011;20720;48.886;9.388;2023-02-21T06:09:08;23.05;;;10.13;;
34481;SDS011;20720;48.886;9.388;2023-02-21T06:11:35;22.08;;;10.75;;
34481;SDS011;20720;48.886;9.388;2023-02-21T06:14:02;12.90;;;7.10;;
34481;SDS011;20720;48.886;9.388;2023-02-21T06:16:31;11.13;;;6.28;;
34481;SDS011;20720;48.886;9.388;2023-02-21T06:18:57;15.05;;;5.05;;
34481;SDS011;20720;48.886;9.388;2023-02-21T06:21:23;10.48;;;4.55;;
34481;SDS011;20720;48.886;9.388;2023-02-21T06:23:48;7.35;;;3.80;;
34481;SDS011;20720;48.886;9.388;2023-02-21T06:26:14;6.95;;;4.18;;
34481;SDS011;20720;48.886;9.388;2023-02-21T06:28:39;7.45;;;3.70;;
34481;SDS011;20720;48.886;9.388;2023-02-21T06:31:04;9.02;;;4.45;;
34481;SDS011;20720;48.886;9.388;2023-02-21T06:33:31;9.38;;;4.60;;
34481;SDS011;20720;48.886;9.388;2023-02-21T06:35:57;10.65;;;4.60;;
34481;SDS011;20720;48.886;9.388;2023-02-21T06:38:23;7.38;;;4.53;;
34481;SDS011;20720;48.886;9.388;2023-02-21T06:40:48;8.25;;;4.40;;
34481;SDS011;20720;48.886;9.388;2023-02-21T06:43:13;11.75;;;4.63;;
34481;SDS011;20720;48.886;9.388;2023-02-21T06:45:39;11.02;;;5.10;;
34481;SDS011;20720;48.886;9.388;2023-02-21T06:48:04;8.25;;;4.15;;
34481;SDS011;20720;48.886;9.388;2023-02-21T06:50:29;9.77;;;4.15;;
34481;SDS011;20720;48.886;9.388;2023-02-21T06:52:55;8.45;;;4.78;;
34481;SDS011;20720;48.886;9.388;2023-02-21T06:55:21;8.07;;;4.40;;
34481;SDS011;20720;48.886;9.388;2023-02-21T06:57:47;10.30;;;5.05;;
34481;SDS011;20720;48.886;9.388;2023-02-21T07:00:12;11.50;;;5.38;;
34481;SDS011;20720;48.886;9.388;2023-02-21T07:02:39;10.13;;;5.63;;
34481;SDS011;20720;48.886;9.388;2023-02-21T07:05:05;10.25;;;5.47;;
34481;SDS011;20720;48.886;9.388;2023-02-21T07:07:30;10.00;;;6.35;;
34481;SDS011;20720;48.886;9.388;2023-02-21T07:09:55;9.90;;;5.82;;
34481;SDS011;20720;48.886;9.388;2023-02-21T07:12:21;9.07;;;5.82;;
34481;SDS011;20720;48.886;9.388;2023-02-21T07:14:46;10.25;;;5.60;;
34481;SDS011;20720;48.886;9.388;2023-02-21T07:17:11;16.10;;;5.35;;
34481;SDS011;20720;48.886;9.388;2023-02-21T07:19:37;12.38;;;5.07;;
34481;SDS011;20720;48.886;9.388;2023-02-21T07:22:02;10.48;;;4.78;;
34481;SDS011;20720;48.886;9.388;2023-02-21T07:24:28;11.32;;;4.05;;
34481;SDS011;20720;48.886;9.388;2023-02-21T07:26:53;8.55;;;3.97;;
34481;SDS011;20720;48.886;9.388;2023-02-21T07:29:19;7.07;;;3.45;;
34481;SDS011;20720;48.886;9.388;2023-02-21T07:31:44;9.15;;;4.10;;
34481;SDS011;20720;48.886;9.388;2023-02-21T07:34:09;9.20;;;4.30;;
34481;SDS011;20720;48.886;9.388;2023-02-21T07:36:36;8.63;;;4.03;;
34481;SDS011;20720;48.886;9.388;2023-02-21T07:39:02;8.15;;;4.10;;
34481;SDS011;20720;48.886;9.388;2023-02-21T07:41:28;10.75;;;4.10;;
34481;SDS011;20720;48.886;9.388;2023-02-21T07:43:53;13.20;;;3.97;;
34481;SDS011;20720;48.886;9.388;2023-02-21T07:46:19;7.47;;;4.18;;
34481;SDS011;20720;48.886;9.388;2023-02-21T07:48:44;9.10;;;4.15;;
34481;SDS011;20720;48.886;9.388;2023-02-21T07:51:10;30.35;;;5.45;;
34481;SDS011;20720;48.886;9.388;2023-02-21T07:53:35;12.02;;;4.53;;
34481;SDS011;20720;48.886;9.388;2023-02-21T07:56:01;7.50;;;4.15;;
34481;SDS011;20720;48.886;9.388;2023-02-21T07:58:27;13.05;;;4.47;;
34481;SDS011;20720;48.886;9.388;2023-02-21T08:00:52;9.05;;;4.00;;
34481;SDS011;20720;48.886;9.388;2023-02-21T08:03:19;9.95;;;3.95;;
34481;SDS011;20720;48.886;9.388;2023-02-21T08:05:45;9.93;;;4.00;;
34481;SDS011;20720;48.886;9.388;2023-02-21T08:08:10;9.90;;;4.40;;
34481;SDS011;20720;48.886;9.388;2023-02-21T08:10:36;13.05;;;4.75;;
34481;SDS011;20720;48.886;9.388;2023-02-21T08:13:01;13.70;;;4.93;;
34481;SDS011;20720;48.886;9.388;2023-02-21T08:15:27;7.53;;;4.07;;
34481;SDS011;20720;48.886;9.388;2023-02-21T08:17:53;11.20;;;4.22;;
34481;SDS011;20720;48.886;9.388;2023-02-21T08:20:19;9.45;;;4.28;;
34481;SDS011;20720;48.886;9.388;2023-02-21T08:22:47;6.82;;;3.83;;
34481;SDS011;20720;48.886;9.388;2023-02-21T08:25:13;9.55;;;4.15;;
34481;SDS011;20720;48.886;9.388;2023-02-21T08:27:40;9.88;;;4.00;;
34481;SDS011;20720;48.886;9.388;2023-02-21T08:30:06;8.38;;;4.15;;
34481;SDS011;20720;48.886;9.388;2023-02-21T08:32:33;17.48;;;8.90;;
34481;SDS011;20720;48.886;9.388;2023-02-21T08:34:59;23.92;;;11.35;;
34481;SDS011;20720;48.886;9.388;2023-02-21T08:37:25;27.05;;;10.70;;
34481;SDS011;20720;48.886;9.388;2023-02-21T08:39:56;15.25;;;6.05;;
34481;SDS011;20720;48.886;9.388;2023-02-21T08:42:22;11.57;;;5.00;;
34481;SDS011;20720;48.886;9.388;2023-02-21T08:44:48;9.95;;;5.80;;
34481;SDS011;20720;48.886;9.388;2023-02-21T08:47:14;7.07;;;4.07;;
34481;SDS011;20720;48.886;9.388;2023-02-21T08:49:44;11.98;;;5.15;;
34481;SDS011;20720;48.886;9.388;2023-02-21T08:52:11;11.38;;;4.53;;
34481;SDS011;20720;48.886;9.388;2023-02-21T08:54:37;8.05;;;4.10;;
34481;SDS011;20720;48.886;9.388;2023-02-21T08:57:02;7.78;;;3.67;;
34481;SDS011;20720;48.886;9.388;2023-02-21T08:59:27;6.35;;;3.92;;
34481;SDS011;20720;48.886;9.388;2023-02-21T09:01:57;8.38;;;3.97;;
34481;SDS011;20720;48.886;9.388;2023-02-21T09:04:22;6.47;;;3.40;;
34481;SDS011;20720;48.886;9.388;2023-02-21T09:06:49;6.95;;;4.20;;
34481;SDS011;20720;48.886;9.388;2023-02-21T09:09:15;7.57;;;3.10;;
34481;SDS011;20720;48.886;9.388;2023-02-21T09:11:40;8.32;;;3.50;;
34481;SDS011;20720;48.886;9.388;2023-02-21T09:14:10;8.82;;;3.10;;
34481;SDS011;20720;48.886;9.388;2023-02-21T09:16:36;6.40;;;2.85;;
34481;SDS011;20720;48.886;9.388;2023-02-21T09:19:01;4.65;;;2.63;;
34481;SDS011;20720;48.886;9.388;2023-02-21T09:21:30;7.10;;;2.97;;
34481;SDS011;20720;48.886;9.388;2023-02-21T09:23:56;5.72;;;2.63;;
34481;SDS011;20720;48.886;9.388;2023-02-21T09:26:23;7.63;;;2.70;;
34481;SDS011;20720;48.886;9.388;2023-02-21T09:28:49;4.63;;;2.38;;
34481;SDS011;20720;48.886;9.388;2023-02-21T09:31:15;5.30;;;2.63;;
34481;SDS011;20720;48.886;9.388;2023-02-21T09:33:40;4.15;;;2.40;;
34481;SDS011;20720;48.886;9.388;2023-02-21T09:36:06;7.13;;;2.75;;
34481;SDS011;20720;48.886;9.388;2023-02-21T09:38:32;3.47;;;2.00;;
34481;SDS011;20720;48.886;9.388;2023-02-21T09:40:59;5.03;;;2.33;;
34481;SDS011;20720;48.886;9.388;2023-02-21T09:51:54;4.47;;;2.30;;
34481;SDS011;20720;48.886;9.388;2023-02-21T09:54:25;7.68;;;2.58;;
34481;SDS011;20720;48.886;9.388;2023-02-21T09:56:55;6.85;;;2.38;;
34481;SDS011;20720;48.886;9.388;2023-02-21T09:59:24;4.18;;;2.10;;
34481;SDS011;20720;48.886;9.388;2023-02-21T10:04:47;6.70;;;2.35;;
34481;SDS011;20720;48.886;9.388;2023-02-21T10:10:00;4.78;;;2.30;;
34481;SDS011;20720;48.886;9.388;2023-02-21T10:12:36;6.28;;;2.78;;
34481;SDS011;20720;48.886;9.388;2023-02-21T10:21:00;6.00;;;2.75;;
34481;SDS011;20720;48.886;9.388;2023-02-21T10:23:40;8.63;;;2.90;;
34481;SDS011;20720;48.886;9.388;2023-02-21T10:26:12;8.05;;;3.25;;
34481;SDS011;20720;48.886;9.388;2023-02-21T10:28:42;7.43;;;2.97;;
34481;SDS011;20720;48.886;9.388;2023-02-21T10:31:10;6.18;;;2.88;;
34481;SDS011;20720;48.886;9.388;2023-02-21T10:33:39;5.93;;;2.78;;
34481;SDS011;20720;48.886;9.388;2023-02-21T10:36:09;7.63;;;3.72;;
34481;SDS011;20720;48.886;9.388;2023-02-21T10:38:42;8.65;;;3.50;;
34481;SDS011;20720;48.886;9.388;2023-02-21T10:41:17;6.88;;;3.03;;
34481;SDS011;20720;48.886;9.388;2023-02-21T10:43:44;6.47;;;3.60;;
34481;SDS011;20720;48.886;9.388;2023-02-21T10:54:35;5.82;;;2.83;;
34481;SDS011;20720;48.886;9.388;2023-02-21T10:57:01;6.28;;;3.38;;
34481;SDS011;20720;48.886;9.388;2023-02-21T10:59:32;8.75;;;3.58;;
34481;SDS011;20720;48.886;9.388;2023-02-21T11:02:00;6.57;;;3.13;;
34481;SDS011;20720;48.886;9.388;2023-02-21T11:04:30;7.78;;;3.08;;
34481;SDS011;20720;48.886;9.388;2023-02-21T11:07:08;6.33;;;3.40;;
34481;SDS011;20720;48.886;9.388;2023-02-21T11:09:43;6.18;;;3.45;;
34481;SDS011;20720;48.886;9.388;2023-02-21T11:17:17;5.97;;;2.97;;
34481;SDS011;20720;48.886;9.388;2023-02-21T11:19:47;6.18;;;3.42;;
34481;SDS011;20720;48.886;9.388;2023-02-21T11:22:18;6.10;;;3.25;;
34481;SDS011;20720;48.886;9.388;2023-02-21T11:27:22;8.60;;;2.80;;
34481;SDS011;20720;48.886;9.388;2023-02-21T11:29:48;6.85;;;3.38;;
34481;SDS011;20720;48.886;9.388;2023-02-21T11:32:21;6.60;;;3.20;;
34481;SDS011;20720;48.886;9.388;2023-02-21T11:34:50;6.95;;;3.58;;
34481;SDS011;20720;48.886;9.388;2023-02-21T11:37:15;6.25;;;3.15;;
34481;SDS011;20720;48.886;9.388;2023-02-21T11:39:41;6.55;;;3.03;;
34481;SDS011;20720;48.886;9.388;2023-02-21T11:47:37;5.60;;;2.40;;
34481;SDS011;20720;48.886;9.388;2023-02-21T11:50:17;5.63;;;2.50;;
34481;SDS011;20720;48.886;9.388;2023-02-21T11:55:25;5.32;;;2.03;;
34481;SDS011;20720;48.886;9.388;2023-02-21T12:00:50;6.57;;;2.60;;
34481;SDS011;20720;48.886;9.388;2023-02-21T12:03:45;4.72;;;2.22;;
34481;SDS011;20720;48.886;9.388;2023-02-21T12:09:12;4.97;;;2.15;;
34481;SDS011;20720;48.886;9.388;2023-02-21T12:19:57;2.85;;;1.42;;
34481;SDS011;20720;48.886;9.388;2023-02-21T12:33:42;3.80;;;1.80;;
34481;SDS011;20720;48.886;9.388;2023-02-21T12:36:16;4.18;;;1.75;;
34481;SDS011;20720;48.886;9.388;2023-02-21T12:44:11;4.03;;;1.98;;
34481;SDS011;20720;48.886;9.388;2023-02-21T12:46:39;3.83;;;2.03;;
34481;SDS011;20720;48.886;9.388;2023-02-21T12:49:21;3.08;;;1.80;;
34481;SDS011;20720;48.886;9.388;2023-02-21T12:54:55;5.43;;;3.08;;
34481;SDS011;20720;48.886;9.388;2023-02-21T12:57:47;4.40;;;2.45;;
34481;SDS011;20720;48.886;9.388;2023-02-21T13:08:22;4.20;;;1.70;;
34481;SDS011;20720;48.886;9.388;2023-02-21T13:13:46;4.60;;;1.95;;
34481;SDS011;20720;48.886;9.388;2023-02-21T13:16:11;4.03;;;2.20;;
34481;SDS011;20720;48.886;9.388;2023-02-21T13:18:38;3.90;;;1.90;;
34481;SDS011;20720;48.886;9.388;2023-02-21T13:21:30;4.47;;;2.08;;
34481;SDS011;20720;48.886;9.388;2023-02-21T13:24:20;3.58;;;1.67;;
34481;SDS011;20720;48.886;9.388;2023-02-21T13:29:27;3.97;;;1.70;;
34481;SDS011;20720;48.886;9.388;2023-02-21T13:31:59;2.83;;;1.48;;
34481;SDS011;20720;48.886;9.388;2023-02-21T13:34:27;5.30;;;1.70;;
34481;SDS011;20720;48.886;9.388;2023-02-21T13:36:59;5.07;;;1.70;;
34481;SDS011;20720;48.886;9.388;2023-02-21T13:39:27;2.58;;;1.40;;
34481;SDS011;20720;48.886;9.388;2023-02-21T13:42:08;4.05;;;1.30;;
34481;SDS011;20720;48.886;9.388;2023-02-21T13:44:40;5.82;;;1.67;;
34481;SDS011;20720;48.886;9.388;2023-02-21T13:49:43;3.38;;;1.33;;
34481;SDS011;20720;48.886;9.388;2023-02-21T13:57:50;3.08;;;1.30;;
34481;SDS011;20720;48.886;9.388;2023-02-21T14:03:02;3.85;;;1.30;;
34481;SDS011;20720;48.886;9.388;2023-02-21T14:21:03;3.93;;;1.23;;
34481;SDS011;20720;48.886;9.388;2023-02-21T14:23:41;3.45;;;1.50;;
34481;SDS011;20720;48.886;9.388;2023-02-21T14:26:33;3.38;;;1.17;;
34481;SDS011;20720;48.886;9.388;2023-02-21T14:31:46;3.17;;;1.50;;
34481;SDS011;20720;48.886;9.388;2023-02-21T14:34:12;3.10;;;1.40;;
34481;SDS011;20720;48.886;9.388;2023-02-21T14:36:41;3.25;;;1.30;;
34481;SDS011;20720;48.886;9.388;2023-02-21T14:39:07;3.20;;;0.95;;
34481;SDS011;20720;48.886;9.388;2023-02-21T14:41:49;2.72;;;1.40;;
34481;SDS011;20720;48.886;9.388;2023-02-21T14:47:32;3.00;;;1.15;;
34481;SDS011;20720;48.886;9.388;2023-02-21T14:55:33;3.00;;;1.10;;
34481;SDS011;20720;48.886;9.388;2023-02-21T15:01:02;3.75;;;1.50;;
34481;SDS011;20720;48.886;9.388;2023-02-21T15:03:50;3.10;;;1.17;;
34481;SDS011;20720;48.886;9.388;2023-02-21T15:06:24;2.67;;;1.10;;
34481;SDS011;20720;48.886;9.388;2023-02-21T15:08:52;2.88;;;1.10;;
34481;SDS011;20720;48.886;9.388;2023-02-21T15:14:09;2.17;;;1.20;;
34481;SDS011;20720;48.886;9.388;2023-02-21T15:16:38;2.05;;;1.02;;
34481;SDS011;20720;48.886;9.388;2023-02-21T15:19:14;1.85;;;1.10;;
34481;SDS011;20720;48.886;9.388;2023-02-21T15:21:46;2.17;;;1.10;;
34481;SDS011;20720;48.886;9.388;2023-02-21T15:24:12;3.25;;;1.40;;
34481;SDS011;20720;48.886;9.388;2023-02-21T15:26:39;2.78;;;1.10;;
34481;SDS011;20720;48.886;9.388;2023-02-21T15:31:36;2.42;;;1.15;;
34481;SDS011;20720;48.886;9.388;2023-02-21T15:34:03;4.13;;;1.20;;
34481;SDS011;20720;48.886;9.388;2023-02-21T15:36:28;2.03;;;1.10;;
34481;SDS011;20720;48.886;9.388;2023-02-21T15:41:47;3.00;;;0.93;;
34481;SDS011;20720;48.886;9.388;2023-02-21T15:44:19;4.55;;;1.33;;
34481;SDS011;20720;48.886;9.388;2023-02-21T15:49:26;3.17;;;1.15;;
34481;SDS011;20720;48.886;9.388;2023-02-21T15:51:54;3.53;;;1.35;;
34481;SDS011;20720;48.886;9.388;2023-02-21T15:54:21;2.13;;;1.08;;
34481;SDS011;20720;48.886;9.388;2023-02-21T15:59:33;2.17;;;1.15;;
34481;SDS011;20720;48.886;9.388;2023-02-21T16:04:37;2.97;;;0.95;;
34481;SDS011;20720;48.886;9.388;2023-02-21T16:07:05;2.35;;;0.82;;
34481;SDS011;20720;48.886;9.388;2023-02-21T16:09:38;3.55;;;1.17;;
34481;SDS011;20720;48.886;9.388;2023-02-21T16:17:21;3.35;;;1.50;;
34481;SDS011;20720;48.886;9.388;2023-02-21T16:19:54;3.47;;;1.50;;
34481;SDS011;20720;48.886;9.388;2023-02-21T16:27:31;6.15;;;1.70;;
34481;SDS011;20720;48.886;9.388;2023-02-21T16:29:56;4.03;;;1.90;;
34481;SDS011;20720;48.886;9.388;2023-02-21T16:32:22;9.88;;;4.40;;
34481;SDS011;20720;48.886;9.388;2023-02-21T16:34:49;7.18;;;3.17;;
34481;SDS011;20720;48.886;9.388;2023-02-21T16:37:15;9.88;;;3.50;;
34481;SDS011;20720;48.886;9.388;2023-02-21T16:39:40;8.18;;;2.63;;
34481;SDS011;20720;48.886;9.388;2023-02-21T16:42:06;7.03;;;3.00;;
34481;SDS011;20720;48.886;9.388;2023-02-21T16:44:31;5.90;;;2.35;;
34481;SDS011;20720;48.886;9.388;2023-02-21T16:46:57;9.50;;;2.20;;
34481;SDS011;20720;48.886;9.388;2023-02-21T16:49:23;6.65;;;2.20;;
34481;SDS011;20720;48.886;9.388;2023-02-21T16:51:48;5.38;;;2.95;;
34481;SDS011;20720;48.886;9.388;2023-02-21T16:54:14;9.80;;;3.45;;
34481;SDS011;20720;48.886;9.388;2023-02-21T16:56:40;7.70;;;2.88;;
34481;SDS011;20720;48.886;9.388;2023-02-21T16:59:09;11.50;;;4.10;;
34481;SDS011;20720;48.886;9.388;2023-02-21T17:01:37;10.50;;;4.47;;
34481;SDS011;20720;48.886;9.388;2023-02-21T17:04:04;12.50;;;6.78;;
34481;SDS011;20720;48.886;9.388;2023-02-21T17:06:31;11.90;;;5.97;;
34481;SDS011;20720;48.886;9.388;2023-02-21T17:08:57;24.30;;;13.27;;
34481;SDS011;20720;48.886;9.388;2023-02-21T17:11:23;29.45;;;16.23;;
34481;SDS011;20720;48.886;9.388;2023-02-21T17:13:49;21.40;;;11.32;;
34481;SDS011;20720;48.886;9.388;2023-02-21T17:16:15;30.17;;;15.27;;
34481;SDS011;20720;48.886;9.388;2023-02-21T17:18:42;28.27;;;13.32;;
34481;SDS011;20720;48.886;9.388;2023-02-21T17:21:08;42.45;;;13.98;;
34481;SDS011;20720;48.886;9.388;2023-02-21T17:23:34;54.90;;;12.13;;
34481;SDS011;20720;48.886;9.388;2023-02-21T17:25:59;25.45;;;9.57;;
34481;SDS011;20720;48.886;9.388;2023-02-21T17:28:24;23.88;;;8.40;;
34481;SDS011;20720;48.886;9.388;2023-02-21T17:30:50;18.75;;;7.60;;
34481;SDS011;20720;48.886;9.388;2023-02-21T17:33:15;20.45;;;6.80;;
34481;SDS011;20720;48.886;9.388;2023-02-21T17:35:40;15.75;;;6.10;;
34481;SDS011;20720;48.886;9.388;2023-02-21T17:38:06;13.60;;;5.78;;
34481;SDS011;20720;48.886;9.388;2023-02-21T17:40:31;16.75;;;5.65;;
34481;SDS011;20720;48.886;9.388;2023-02-21T17:42:56;12.07;;;5.47;;
34481;SDS011;20720;48.886;9.388;2023-02-21T17:45:22;17.85;;;6.60;;
34481;SDS011;20720;48.886;9.388;2023-02-21T17:47:48;15.68;;;5.88;;
34481;SDS011;20720;48.886;9.388;2023-02-21T17:50:14;13.25;;;5.57;;
34481;SDS011;20720;48.886;9.388;2023-02-21T17:52:40;8.35;;;3.70;;
34481;SDS011;20720;48.886;9.388;2023-02-21T17:55:06;9.80;;;3.28;;
34481;SDS011;20720;48.886;9.388;2023-02-21T17:57:34;13.80;;;5.55;;
34481;SDS011;20720;48.886;9.388;2023-02-21T18:00:04;16.17;;;4.50;;
34481;SDS011;20720;48.886;9.388;2023-02-21T18:02:33;12.85;;;4.47;;
34481;SDS011;20720;48.886;9.388;2023-02-21T18:04:58;11.35;;;4.63;;
34481;SDS011;20720;48.886;9.388;2023-02-21T18:07:24;16.10;;;5.53;;
34481;SDS011;20720;48.886;9.388;2023-02-21T18:09:52;10.48;;;4.57;;
34481;SDS011;20720;48.886;9.388;2023-02-21T18:12:17;11.93;;;4.45;;
34481;SDS011;20720;48.886;9.388;2023-02-21T18:14:43;12.32;;;4.88;;
34481;SDS011;20720;48.886;9.388;2023-02-21T18:17:08;11.18;;;4.10;;